sensor_id;sensor_type;location;lat;lon;timestamp;pressure;altitude;pressure_sealevel;temperature;humidity
43553;BME280;29153;42.696;23.218;2024-01-16T00:01:21;92959.04;;;1.38;100.00
43553;BME280;29153;42.696;23.218;2024-01-16T00:03:48;92960.64;;;1.45;100.00
43553;BME280;29153;42.696;23.218;2024-01-16T00:06:16;92975.57;;;1.64;100.00
43553;BME280;29153;42.696;23.218;2024-01-16T00:08:44;92981.81;;;1.63;100.00
43553;BME280;29153;42.696;23.218;2024-01-16T00:11:11;92982.34;;;1.58;100.00
43553;BME280;29153;42.696;23.218;2024-01-16T00:13:39;92956.52;;;1.64;100.00
43553;BME280;29153;42.696;23.218;2024-01-16T00:16:06;92948.83;;;1.29;100.00
43553;BME280;29153;42.696;23.218;2024-01-16T00:18:35;92978.41;;;1.55;100.00
43553;BME280;29153;42.696;23.218;2024-01-16T00:21:02;92978.45;;;1.65;100.00
43553;BME280;29153;42.696;23.218;2024-01-16T00:23:30;92988.84;;;1.53;100.00
43553;BME280;29153;42.696;23.218;2024-01-16T00:25:58;92994.89;;;1.68;100.00
43553;BME280;29153;42.696;23.218;2024-01-16T00:28:26;92995.38;;;1.63;100.00
43553;BME280;29153;42.696;23.218;2024-01-16T00:30:54;92993.84;;;1.62;100.00
43553;BME280;29153;42.696;23.218;2024-01-16T00:33:21;93012.89;;;1.62;100.00
43553;BME280;29153;42.696;23.218;2024-01-16T00:35:49;93018.35;;;1.63;100.00
43553;BME280;29153;42.696;23.218;2024-01-16T00:38:17;92996.42;;;1.57;100.00
43553;BME280;29153;42.696;23.218;2024-01-16T00:40:45;92999.05;;;1.64;100.00
43553;BME280;29153;42.696;23.218;2024-01-16T00:43:12;93000.13;;;1.71;100.00
43553;BME280;29153;42.696;23.218;2024-01-16T00:45:40;93009.78;;;1.75;100.00
43553;BME280;29153;42.696;23.218;2024-01-16T00:48:08;93014.98;;;1.65;100.00
43553;BME280;29153;42.696;23.218;2024-01-16T00:50:37;93001.17;;;1.70;100.00
43553;BME280;29153;42.696;23.218;2024-01-16T00:53:05;93000.90;;;1.66;100.00
43553;BME280;29153;42.696;23.218;2024-01-16T00:55:32;92997.77;;;1.67;100.00
43553;BME280;29153;42.696;23.218;2024-01-16T00:58:00;92994.13;;;1.70;100.00
43553;BME280;29153;42.696;23.218;2024-01-16T01:00:27;93017.07;;;1.68;100.00
43553;BME280;29153;42.696;23.218;2024-01-16T01:02:57;93013.95;;;1.69;100.00
43553;BME280;29153;42.696;23.218;2024-01-16T01:05:26;93025.94;;;1.67;100.00
43553;BME280;29153;42.696;23.218;2024-01-16T01:07:55;93036.92;;;1.69;100.00
43553;BME280;29153;42.696;23.218;2024-01-16T01:10:23;93030.12;;;1.66;100.00
43553;BME280;29153;42.696;23.218;2024-01-16T01:12:51;93034.33;;;1.74;100.00
43553;BME280;29153;42.696;23.218;2024-01-16T01:15:20;93029.60;;;1.71;100.00
43553;BME280;29153;42.696;23.218;2024-01-16T01:17:49;93035.12;;;1.80;100.00
43553;BME280;29153;42.696;23.218;2024-01-16T01:20:18;93024.67;;;1.80;100.00
43553;BME280;29153;42.696;23.218;2024-01-16T01:22:46;93025.66;;;1.64;100.00
43553;BME280;29153;42.696;23.218;2024-01-16T01:25:14;93040.63;;;1.83;100.00
43553;BME280;29153;42.696;23.218;2024-01-16T01:27:42;93024.70;;;1.85;100.00
43553;BME280;29153;42.696;23.218;2024-01-16T01:30:10;93024.98;;;1.94;100.00
43553;BME280;29153;42.696;23.218;2024-01-16T01:32:38;93019.25;;;1.92;100.00
43553;BME280;29153;42.696;23.218;2024-01-16T01:35:06;93020.05;;;2.00;100.00
43553;BME280;29153;42.696;23.218;2024-01-16T01:37:34;93023.47;;;2.05;100.00
43553;BME280;29153;42.696;23.218;2024-01-16T01:40:02;93016.38;;;1.98;100.00
43553;BME280;29153;42.696;23.218;2024-01-16T01:42:29;93005.98;;;2.13;100.00
43553;BME280;29153;42.696;23.218;2024-01-16T01:44:57;93002.85;;;2.16;100.00
43553;BME280;29153;42.696;23.218;2024-01-16T01:47:25;92992.17;;;2.71;100.00
43553;BME280;29153;42.696;23.218;2024-01-16T01:49:53;92991.13;;;2.77;100.00
43553;BME280;29153;42.696;23.218;2024-01-16T01:52:20;92992.92;;;3.02;100.00
43553;BME280;29153;42.696;23.218;2024-01-16T01:54:48;92997.25;;;3.47;100.00
43553;BME280;29153;42.696;23.218;2024-01-16T01:57:18;92999.80;;;3.70;100.00
43553;BME280;29153;42.696;23.218;2024-01-16T01:59:46;93014.41;;;3.83;100.00
43553;BME280;29153;42.696;23.218;2024-01-16T02:02:13;93011.98;;;4.02;100.00
43553;BME280;29153;42.696;23.218;2024-01-16T02:04:43;93007.64;;;4.24;100.00
43553;BME280;29153;42.696;23.218;2024-01-16T02:07:13;93011.03;;;4.29;100.00
43553;BME280;29153;42.696;23.218;2024-01-16T02:09:42;93010.45;;;4.37;100.00
43553;BME280;29153;42.696;23.218;2024-01-16T02:12:10;93002.56;;;4.42;100.00
43553;BME280;29153;42.696;23.218;2024-01-16T02:14:38;92994.44;;;4.41;100.00
43553;BME280;29153;42.696;23.218;2024-01-16T02:17:05;92988.34;;;4.53;100.00
43553;BME280;29153;42.696;23.218;2024-01-16T02:19:33;93002.47;;;4.57;100.00
43553;BME280;29153;42.696;23.218;2024-01-16T02:22:01;93005.78;;;4.68;100.00
43553;BME280;29153;42.696;23.218;2024-01-16T02:24:30;93014.70;;;4.70;100.00
43553;BME280;29153;42.696;23.218;2024-01-16T02:26:58;93025.69;;;4.72;100.00
43553;BME280;29153;42.696;23.218;2024-01-16T02:29:25;93035.65;;;4.75;100.00
43553;BME280;29153;42.696;23.218;2024-01-16T02:31:53;93042.37;;;4.86;100.00
43553;BME280;29153;42.696;23.218;2024-01-16T02:34:21;93038.94;;;4.88;100.00
43553;BME280;29153;42.696;23.218;2024-01-16T02:36:48;93053.42;;;4.83;100.00
43553;BME280;29153;42.696;23.218;2024-01-16T02:39:16;93052.38;;;4.81;100.00
43553;BME280;29153;42.696;23.218;2024-01-16T02:41:43;93041.81;;;4.89;100.00
43553;BME280;29153;42.696;23.218;2024-01-16T02:44:11;93059.92;;;4.88;100.00
43553;BME280;29153;42.696;23.218;2024-01-16T02:46:39;93070.48;;;4.83;100.00
43553;BME280;29153;42.696;23.218;2024-01-16T02:49:06;93098.78;;;4.86;100.00
43553;BME280;29153;42.696;23.218;2024-01-16T02:51:34;93132.00;;;4.56;100.00
43553;BME280;29153;42.696;23.218;2024-01-16T02:54:02;93136.33;;;4.20;100.00
43553;BME280;29153;42.696;23.218;2024-01-16T02:56:29;93135.16;;;3.79;100.00
43553;BME280;29153;42.696;23.218;2024-01-16T02:58:57;93137.83;;;3.36;100.00
43553;BME280;29153;42.696;23.218;2024-01-16T03:01:24;93148.55;;;3.40;100.00
43553;BME280;29153;42.696;23.218;2024-01-16T03:03:52;93145.69;;;3.46;100.00
43553;BME280;29153;42.696;23.218;2024-01-16T03:06:23;93156.64;;;3.56;100.00
43553;BME280;29153;42.696;23.218;2024-01-16T03:08:52;93174.17;;;3.78;100.00
43553;BME280;29153;42.696;23.218;2024-01-16T03:11:19;93184.11;;;3.81;100.00
43553;BME280;29153;42.696;23.218;2024-01-16T03:13:47;93195.37;;;3.77;100.00
43553;BME280;29153;42.696;23.218;2024-01-16T03:16:16;93198.26;;;3.73;100.00
43553;BME280;29153;42.696;23.218;2024-01-16T03:18:43;93210.86;;;3.63;100.00
43553;BME280;29153;42.696;23.218;2024-01-16T03:21:13;93220.79;;;3.61;100.00
43553;BME280;29153;42.696;23.218;2024-01-16T03:23:40;93223.16;;;3.57;100.00
43553;BME280;29153;42.696;23.218;2024-01-16T03:26:13;93238.33;;;3.48;100.00
43553;BME280;29153;42.696;23.218;2024-01-16T03:28:41;93244.34;;;3.36;100.00
43553;BME280;29153;42.696;23.218;2024-01-16T03:31:09;93225.98;;;3.10;100.00
43553;BME280;29153;42.696;23.218;2024-01-16T03:33:37;93258.96;;;3.19;100.00
43553;BME280;29153;42.696;23.218;2024-01-16T03:36:06;93261.04;;;3.17;100.00
43553;BME280;29153;42.696;23.218;2024-01-16T03:38:34;93272.05;;;3.16;100.00
43553;BME280;29153;42.696;23.218;2024-01-16T03:41:03;93269.65;;;3.02;100.00
43553;BME280;29153;42.696;23.218;2024-01-16T03:43:34;93280.38;;;3.06;100.00
43553;BME280;29153;42.696;23.218;2024-01-16T03:46:01;93289.78;;;3.02;100.00
43553;BME280;29153;42.696;23.218;2024-01-16T03:48:29;93296.80;;;2.91;100.00
43553;BME280;29153;42.696;23.218;2024-01-16T03:50:56;93297.31;;;2.88;100.00
43553;BME280;29153;42.696;23.218;2024-01-16T03:53:24;93302.19;;;2.64;100.00
43553;BME280;29153;42.696;23.218;2024-01-16T03:55:52;93303.74;;;2.65;100.00
43553;BME280;29153;42.696;23.218;2024-01-16T03:58:19;93317.91;;;2.72;100.00
43553;BME280;29153;42.696;23.218;2024-01-16T04:00:47;93324.37;;;2.59;100.00
43553;BME280;29153;42.696;23.218;2024-01-16T04:03:17;93331.42;;;2.56;100.00
43553;BME280;29153;42.696;23.218;2024-01-16T04:05:45;93338.20;;;2.57;100.00
43553;BME280;29153;42.696;23.218;2024-01-16T04:08:12;93347.08;;;2.54;100.00
43553;BME280;29153;42.696;23.218;2024-01-16T04:10:40;93351.00;;;2.54;100.00
43553;BME280;29153;42.696;23.218;2024-01-16T04:13:08;93356.70;;;2.48;100.00
43553;BME280;29153;42.696;23.218;2024-01-16T04:15:38;93358.24;;;2.42;100.00
43553;BME280;29153;42.696;23.218;2024-01-16T04:18:06;93362.16;;;2.39;100.00
43553;BME280;29153;42.696;23.218;2024-01-16T04:20:34;93368.92;;;2.35;100.00
43553;BME280;29153;42.696;23.218;2024-01-16T04:23:02;93371.22;;;2.29;100.00
43553;BME280;29153;42.696;23.218;2024-01-16T04:25:30;93374.30;;;2.21;100.00
43553;BME280;29153;42.696;23.218;2024-01-16T04:27:58;93326.73;;;1.84;100.00
43553;BME280;29153;42.696;23.218;2024-01-16T04:30:25;93378.91;;;2.09;100.00
43553;BME280;29153;42.696;23.218;2024-01-16T04:32:53;93384.27;;;1.95;100.00
43553;BME280;29153;42.696;23.218;2024-01-16T04:35:21;93385.84;;;1.96;100.00
43553;BME280;29153;42.696;23.218;2024-01-16T04:37:50;93373.77;;;1.90;100.00
43553;BME280;29153;42.696;23.218;2024-01-16T04:40:17;93383.41;;;1.87;100.00
43553;BME280;29153;42.696;23.218;2024-01-16T04:42:45;93392.50;;;1.81;100.00
43553;BME280;29153;42.696;23.218;2024-01-16T04:45:13;93416.27;;;1.82;100.00
43553;BME280;29153;42.696;23.218;2024-01-16T04:47:40;93419.33;;;1.74;100.00
43553;BME280;29153;42.696;23.218;2024-01-16T04:50:09;93419.80;;;1.71;100.00
43553;BME280;29153;42.696;23.218;2024-01-16T04:52:36;93434.48;;;1.77;100.00
43553;BME280;29153;42.696;23.218;2024-01-16T04:55:04;93440.45;;;1.75;100.00
43553;BME280;29153;42.696;23.218;2024-01-16T04:57:32;93439.48;;;1.81;100.00
43553;BME280;29153;42.696;23.218;2024-01-16T05:00:00;93450.90;;;1.75;100.00
43553;BME280;29153;42.696;23.218;2024-01-16T05:02:27;93454.30;;;1.76;100.00
43553;BME280;29153;42.696;23.218;2024-01-16T05:04:55;93463.19;;;1.75;100.00
43553;BME280;29153;42.696;23.218;2024-01-16T05:07:24;93478.22;;;1.65;100.00
43553;BME280;29153;42.696;23.218;2024-01-16T05:09:53;93481.41;;;1.72;100.00
43553;BME280;29153;42.696;23.218;2024-01-16T05:12:21;93489.88;;;1.58;100.00
43553;BME280;29153;42.696;23.218;2024-01-16T05:14:49;93503.97;;;1.59;100.00
43553;BME280;29153;42.696;23.218;2024-01-16T05:17:16;93500.55;;;1.56;100.00
43553;BME280;29153;42.696;23.218;2024-01-16T05:19:44;93518.02;;;1.56;100.00
43553;BME280;29153;42.696;23.218;2024-01-16T05:22:12;93532.97;;;1.63;100.00
43553;BME280;29153;42.696;23.218;2024-01-16T05:24:39;93534.54;;;1.61;100.00
43553;BME280;29153;42.696;23.218;2024-01-16T05:27:07;93544.63;;;1.55;100.00
43553;BME280;29153;42.696;23.218;2024-01-16T05:29:35;93550.64;;;1.56;100.00
43553;BME280;29153;42.696;23.218;2024-01-16T05:32:06;93556.63;;;1.54;100.00
43553;BME280;29153;42.696;23.218;2024-01-16T05:34:33;93559.83;;;1.58;100.00
43553;BME280;29153;42.696;23.218;2024-01-16T05:37:01;93563.17;;;1.56;100.00
43553;BME280;29153;42.696;23.218;2024-01-16T05:39:29;93566.35;;;1.58;100.00
43553;BME280;29153;42.696;23.218;2024-01-16T05:41:57;93574.11;;;1.53;100.00
43553;BME280;29153;42.696;23.218;2024-01-16T05:44:24;93592.19;;;1.60;100.00
43553;BME280;29153;42.696;23.218;2024-01-16T05:46:52;93618.59;;;1.63;100.00
43553;BME280;29153;42.696;23.218;2024-01-16T05:49:20;93622.78;;;1.64;100.00
43553;BME280;29153;42.696;23.218;2024-01-16T05:51:47;93621.33;;;1.54;100.00
43553;BME280;29153;42.696;23.218;2024-01-16T05:54:15;93617.62;;;1.50;100.00
43553;BME280;29153;42.696;23.218;2024-01-16T05:56:43;93625.78;;;1.54;100.00
43553;BME280;29153;42.696;23.218;2024-01-16T05:59:10;93635.94;;;1.53;100.00
43553;BME280;29153;42.696;23.218;2024-01-16T06:01:38;93640.57;;;1.48;100.00
43553;BME280;29153;42.696;23.218;2024-01-16T06:04:05;93642.98;;;1.52;100.00
43553;BME280;29153;42.696;23.218;2024-01-16T06:06:33;93650.52;;;1.51;100.00
43553;BME280;29153;42.696;23.218;2024-01-16T06:09:01;93651.09;;;1.53;100.00
43553;BME280;29153;42.696;23.218;2024-01-16T06:11:32;93661.04;;;1.56;100.00
43553;BME280;29153;42.696;23.218;2024-01-16T06:14:01;93658.86;;;1.51;100.00
43553;BME280;29153;42.696;23.218;2024-01-16T06:16:28;93667.20;;;1.50;100.00
43553;BME280;29153;42.696;23.218;2024-01-16T06:18:56;93682.86;;;1.50;100.00
43553;BME280;29153;42.696;23.218;2024-01-16T06:21:23;93686.01;;;1.50;100.00
43553;BME280;29153;42.696;23.218;2024-01-16T06:23:51;93705.49;;;1.45;100.00
43553;BME280;29153;42.696;23.218;2024-01-16T06:26:19;93716.47;;;1.47;100.00
43553;BME280;29153;42.696;23.218;2024-01-16T06:28:46;93725.48;;;1.56;100.00
43553;BME280;29153;42.696;23.218;2024-01-16T06:31:14;93732.80;;;1.56;100.00
43553;BME280;29153;42.696;23.218;2024-01-16T06:33:44;93737.00;;;1.57;100.00
43553;BME280;29153;42.696;23.218;2024-01-16T06:36:11;93742.67;;;1.54;100.00
43553;BME280;29153;42.696;23.218;2024-01-16T06:38:40;93757.00;;;1.52;100.00
43553;BME280;29153;42.696;23.218;2024-01-16T06:41:07;93758.98;;;1.45;100.00
43553;BME280;29153;42.696;23.218;2024-01-16T06:43:35;93770.27;;;1.50;100.00
43553;BME280;29153;42.696;23.218;2024-01-16T06:46:03;93786.09;;;1.44;99.99
43553;BME280;29153;42.696;23.218;2024-01-16T06:48:31;93795.26;;;1.46;99.31
43553;BME280;29153;42.696;23.218;2024-01-16T06:50:59;93789.78;;;1.45;99.28
43553;BME280;29153;42.696;23.218;2024-01-16T06:53:27;93792.11;;;1.44;99.31
43553;BME280;29153;42.696;23.218;2024-01-16T06:55:55;93808.97;;;1.53;99.41
43553;BME280;29153;42.696;23.218;2024-01-16T06:58:23;93808.56;;;1.45;99.42
43553;BME280;29153;42.696;23.218;2024-01-16T07:00:50;93812.79;;;1.48;100.00
43553;BME280;29153;42.696;23.218;2024-01-16T07:03:18;93810.27;;;1.39;100.00
43553;BME280;29153;42.696;23.218;2024-01-16T07:05:46;93813.36;;;1.36;100.00
43553;BME280;29153;42.696;23.218;2024-01-16T07:08:13;93824.25;;;1.47;100.00
43553;BME280;29153;42.696;23.218;2024-01-16T07:10:41;93838.12;;;1.50;100.00
43553;BME280;29153;42.696;23.218;2024-01-16T07:13:09;93849.00;;;1.45;100.00
43553;BME280;29153;42.696;23.218;2024-01-16T07:15:38;93863.20;;;1.51;99.58
43553;BME280;29153;42.696;23.218;2024-01-16T07:18:06;93872.52;;;1.47;99.14
43553;BME280;29153;42.696;23.218;2024-01-16T07:20:33;93880.06;;;1.46;100.00
43553;BME280;29153;42.696;23.218;2024-01-16T07:23:01;93888.66;;;1.44;100.00
43553;BME280;29153;42.696;23.218;2024-01-16T07:25:29;93893.08;;;1.44;98.14
43553;BME280;29153;42.696;23.218;2024-01-16T07:27:57;93897.97;;;1.40;98.45
43553;BME280;29153;42.696;23.218;2024-01-16T07:30:24;93909.45;;;1.42;98.49
43553;BME280;29153;42.696;23.218;2024-01-16T07:32:52;93908.63;;;1.38;99.32
43553;BME280;29153;42.696;23.218;2024-01-16T07:35:20;93906.09;;;1.41;100.00
43553;BME280;29153;42.696;23.218;2024-01-16T07:37:48;93906.59;;;1.41;99.87
43553;BME280;29153;42.696;23.218;2024-01-16T07:40:15;93909.34;;;1.48;100.00
43553;BME280;29153;42.696;23.218;2024-01-16T07:42:43;93912.50;;;1.50;99.67
43553;BME280;29153;42.696;23.218;2024-01-16T07:45:11;93918.80;;;1.52;99.36
43553;BME280;29153;42.696;23.218;2024-01-16T07:47:38;93916.41;;;1.50;99.83
43553;BME280;29153;42.696;23.218;2024-01-16T07:50:06;93926.66;;;1.54;99.97
43553;BME280;29153;42.696;23.218;2024-01-16T07:52:34;93937.39;;;1.55;99.57
43553;BME280;29153;42.696;23.218;2024-01-16T07:55:02;93954.06;;;1.54;99.36
43553;BME280;29153;42.696;23.218;2024-01-16T07:57:29;93952.61;;;1.58;99.74
43553;BME280;29153;42.696;23.218;2024-01-16T07:59:57;93953.73;;;1.62;99.53
43553;BME280;29153;42.696;23.218;2024-01-16T08:02:32;93894.50;;;1.37;99.35
43553;BME280;29153;42.696;23.218;2024-01-16T08:05:04;93954.27;;;1.64;98.61
43553;BME280;29153;42.696;23.218;2024-01-16T08:07:32;93966.41;;;1.70;98.69
43553;BME280;29153;42.696;23.218;2024-01-16T08:10:01;93973.91;;;1.81;97.49
43553;BME280;29153;42.696;23.218;2024-01-16T08:12:28;93970.65;;;1.74;97.95
43553;BME280;29153;42.696;23.218;2024-01-16T08:14:56;93977.19;;;1.88;97.24
43553;BME280;29153;42.696;23.218;2024-01-16T08:17:24;93993.89;;;1.75;95.76
43553;BME280;29153;42.696;23.218;2024-01-16T08:19:51;93996.77;;;1.88;95.76
43553;BME280;29153;42.696;23.218;2024-01-16T08:22:19;94008.64;;;1.81;95.92
43553;BME280;29153;42.696;23.218;2024-01-16T08:24:46;94009.55;;;1.87;96.38
43553;BME280;29153;42.696;23.218;2024-01-16T08:27:14;94013.97;;;1.87;96.34
43553;BME280;29153;42.696;23.218;2024-01-16T08:29:42;94017.98;;;1.92;96.29
43553;BME280;29153;42.696;23.218;2024-01-16T08:32:10;94026.23;;;1.86;95.85
43553;BME280;29153;42.696;23.218;2024-01-16T08:34:37;94035.41;;;1.89;95.16
43553;BME280;29153;42.696;23.218;2024-01-16T08:37:05;94035.88;;;1.86;95.25
43553;BME280;29153;42.696;23.218;2024-01-16T08:39:33;94041.86;;;1.98;96.26
43553;BME280;29153;42.696;23.218;2024-01-16T08:42:01;94053.61;;;1.98;95.98
43553;BME280;29153;42.696;23.218;2024-01-16T08:44:31;94063.11;;;1.90;93.64
43553;BME280;29153;42.696;23.218;2024-01-16T08:46:59;94066.88;;;1.82;94.16
43553;BME280;29153;42.696;23.218;2024-01-16T08:49:28;94070.04;;;1.84;95.63
43553;BME280;29153;42.696;23.218;2024-01-16T08:51:56;94066.27;;;1.77;96.24
43553;BME280;29153;42.696;23.218;2024-01-16T08:54:23;94076.70;;;1.77;95.86
43553;BME280;29153;42.696;23.218;2024-01-16T08:56:52;94073.19;;;1.83;96.69
43553;BME280;29153;42.696;23.218;2024-01-16T08:59:20;94080.91;;;1.78;96.52
43553;BME280;29153;42.696;23.218;2024-01-16T09:01:47;94080.38;;;1.91;97.05
43553;BME280;29153;42.696;23.218;2024-01-16T09:04:15;94082.41;;;1.89;95.24
43553;BME280;29153;42.696;23.218;2024-01-16T09:06:42;94081.17;;;1.91;94.54
43553;BME280;29153;42.696;23.218;2024-01-16T09:09:10;94078.16;;;1.97;93.30
43553;BME280;29153;42.696;23.218;2024-01-16T09:11:39;94087.16;;;2.03;93.46
43553;BME280;29153;42.696;23.218;2024-01-16T09:14:06;94090.97;;;1.98;92.32
43553;BME280;29153;42.696;23.218;2024-01-16T09:16:34;94094.81;;;2.07;91.97
43553;BME280;29153;42.696;23.218;2024-01-16T09:19:02;94088.46;;;2.03;92.50
43553;BME280;29153;42.696;23.218;2024-01-16T09:21:29;94091.19;;;2.08;92.67
43553;BME280;29153;42.696;23.218;2024-01-16T09:23:57;94103.22;;;2.23;90.98
43553;BME280;29153;42.696;23.218;2024-01-16T09:26:24;94102.91;;;2.34;91.55
43553;BME280;29153;42.696;23.218;2024-01-16T09:28:52;94117.19;;;2.57;91.05
43553;BME280;29153;42.696;23.218;2024-01-16T09:31:20;94110.14;;;2.72;89.69
43553;BME280;29153;42.696;23.218;2024-01-16T09:33:47;94108.64;;;2.76;90.02
43553;BME280;29153;42.696;23.218;2024-01-16T09:36:15;94093.84;;;2.82;90.58
43553;BME280;29153;42.696;23.218;2024-01-16T09:38:43;94099.90;;;2.85;88.74
43553;BME280;29153;42.696;23.218;2024-01-16T09:41:11;94105.87;;;2.83;88.25
43553;BME280;29153;42.696;23.218;2024-01-16T09:43:38;94108.28;;;3.01;87.59
43553;BME280;29153;42.696;23.218;2024-01-16T09:46:08;94108.56;;;3.02;86.56
43553;BME280;29153;42.696;23.218;2024-01-16T09:48:37;94111.07;;;3.11;87.16
43553;BME280;29153;42.696;23.218;2024-01-16T09:51:05;94108.97;;;3.10;87.08
43553;BME280;29153;42.696;23.218;2024-01-16T09:53:32;94110.05;;;3.12;85.81
43553;BME280;29153;42.696;23.218;2024-01-16T09:56:02;94095.07;;;3.43;87.89
43553;BME280;29153;42.696;23.218;2024-01-16T09:58:33;94096.13;;;3.61;87.25
43553;BME280;29153;42.696;23.218;2024-01-16T10:01:00;94088.05;;;4.04;87.66
43553;BME280;29153;42.696;23.218;2024-01-16T10:03:29;94085.30;;;4.16;83.99
43553;BME280;29153;42.696;23.218;2024-01-16T10:05:58;94086.37;;;4.17;80.39
43553;BME280;29153;42.696;23.218;2024-01-16T10:08:27;94085.13;;;4.00;79.81
43553;BME280;29153;42.696;23.218;2024-01-16T10:10:56;94073.03;;;3.97;81.50
43553;BME280;29153;42.696;23.218;2024-01-16T10:13:23;94075.44;;;3.82;84.28
43553;BME280;29153;42.696;23.218;2024-01-16T10:15:51;94085.42;;;4.04;81.10
43553;BME280;29153;42.696;23.218;2024-01-16T10:18:29;94084.11;;;4.04;80.50
43553;BME280;29153;42.696;23.218;2024-01-16T10:21:01;94086.27;;;3.88;81.53
43553;BME280;29153;42.696;23.218;2024-01-16T10:23:32;94102.51;;;3.87;81.41
43553;BME280;29153;42.696;23.218;2024-01-16T10:26:11;94095.56;;;3.59;80.67
43553;BME280;29153;42.696;23.218;2024-01-16T10:28:42;94103.41;;;3.59;80.08
43553;BME280;29153;42.696;23.218;2024-01-16T10:31:11;94107.83;;;3.37;80.98
43553;BME280;29153;42.696;23.218;2024-01-16T10:33:40;94101.00;;;3.36;81.59
43553;BME280;29153;42.696;23.218;2024-01-16T10:38:39;94098.86;;;3.33;80.87
43553;BME280;29153;42.696;23.218;2024-01-16T10:41:13;94097.46;;;3.45;81.41
43553;BME280;29153;42.696;23.218;2024-01-16T10:43:40;94091.70;;;3.64;84.58
43553;BME280;29153;42.696;23.218;2024-01-16T10:46:15;94096.97;;;3.84;78.94
43553;BME280;29153;42.696;23.218;2024-01-16T10:48:45;94102.95;;;3.82;78.48
43553;BME280;29153;42.696;23.218;2024-01-16T10:51:15;94026.47;;;3.41;77.96
43553;BME280;29153;42.696;23.218;2024-01-16T10:53:43;94086.64;;;3.77;79.59
43553;BME280;29153;42.696;23.218;2024-01-16T10:56:13;94073.27;;;3.95;79.81
43553;BME280;29153;42.696;23.218;2024-01-16T10:58:43;94093.52;;;4.02;78.54
43553;BME280;29153;42.696;23.218;2024-01-16T11:01:14;94090.50;;;4.10;80.28
43553;BME280;29153;42.696;23.218;2024-01-16T11:03:48;94097.22;;;4.04;76.33
43553;BME280;29153;42.696;23.218;2024-01-16T11:06:15;94104.23;;;4.20;78.24
43553;BME280;29153;42.696;23.218;2024-01-16T11:08:48;94099.20;;;4.16;79.80
43553;BME280;29153;42.696;23.218;2024-01-16T11:11:16;94095.52;;;4.36;78.49
43553;BME280;29153;42.696;23.218;2024-01-16T11:13:46;94101.08;;;4.42;79.73
43553;BME280;29153;42.696;23.218;2024-01-16T11:16:13;94053.02;;;4.10;79.56
43553;BME280;29153;42.696;23.218;2024-01-16T11:18:41;94102.31;;;3.94;78.07
43553;BME280;29153;42.696;23.218;2024-01-16T11:21:13;94096.83;;;3.93;80.71
43553;BME280;29153;42.696;23.218;2024-01-16T11:23:42;94101.41;;;3.83;79.29
43553;BME280;29153;42.696;23.218;2024-01-16T11:26:31;94074.91;;;3.80;81.19
43553;BME280;29153;42.696;23.218;2024-01-16T11:29:00;94109.45;;;4.18;78.71
43553;BME280;29153;42.696;23.218;2024-01-16T11:31:32;94111.63;;;4.04;78.82
43553;BME280;29153;42.696;23.218;2024-01-16T11:34:01;94105.36;;;3.86;81.27
43553;BME280;29153;42.696;23.218;2024-01-16T11:36:53;94108.41;;;3.97;81.47
43553;BME280;29153;42.696;23.218;2024-01-16T11:39:24;94109.28;;;3.86;81.42
43553;BME280;29153;42.696;23.218;2024-01-16T11:41:59;94109.17;;;3.76;80.44
43553;BME280;29153;42.696;23.218;2024-01-16T11:44:42;94110.52;;;3.42;80.57
43553;BME280;29153;42.696;23.218;2024-01-16T11:47:10;94116.09;;;3.48;81.18
43553;BME280;29153;42.696;23.218;2024-01-16T11:49:40;94120.72;;;3.60;82.29
43553;BME280;29153;42.696;23.218;2024-01-16T11:52:07;94118.31;;;3.56;83.67
43553;BME280;29153;42.696;23.218;2024-01-16T11:54:39;94111.38;;;3.48;84.61
43553;BME280;29153;42.696;23.218;2024-01-16T12:00:02;94114.74;;;3.62;83.79
43553;BME280;29153;42.696;23.218;2024-01-16T12:03:04;94118.39;;;3.61;82.77
43553;BME280;29153;42.696;23.218;2024-01-16T12:05:06;94142.36;;;3.53;81.41
43553;BME280;29153;42.696;23.218;2024-01-16T12:07:48;94144.80;;;3.60;83.15
43553;BME280;29153;42.696;23.218;2024-01-16T12:10:17;94148.08;;;3.50;83.25
43553;BME280;29153;42.696;23.218;2024-01-16T12:12:46;94151.16;;;3.47;83.93
43553;BME280;29153;42.696;23.218;2024-01-16T12:15:18;94153.32;;;3.50;83.14
43553;BME280;29153;42.696;23.218;2024-01-16T12:17:53;94143.61;;;3.51;83.72
43553;BME280;29153;42.696;23.218;2024-01-16T12:20:22;94134.70;;;3.49;84.30
43553;BME280;29153;42.696;23.218;2024-01-16T12:22:54;94140.86;;;3.41;83.18
43553;BME280;29153;42.696;23.218;2024-01-16T12:25:23;94151.81;;;3.38;83.85
43553;BME280;29153;42.696;23.218;2024-01-16T12:27:57;94144.87;;;3.29;84.25
43553;BME280;29153;42.696;23.218;2024-01-16T12:30:35;94158.80;;;3.18;82.76
43553;BME280;29153;42.696;23.218;2024-01-16T12:33:10;94150.56;;;3.26;83.60
43553;BME280;29153;42.696;23.218;2024-01-16T12:35:43;94150.66;;;3.17;82.99
43553;BME280;29153;42.696;23.218;2024-01-16T12:38:14;94158.45;;;3.12;84.45
43553;BME280;29153;42.696;23.218;2024-01-16T12:40:45;94164.70;;;3.25;84.60
43553;BME280;29153;42.696;23.218;2024-01-16T12:43:13;94170.58;;;3.18;83.72
43553;BME280;29153;42.696;23.218;2024-01-16T12:45:40;94163.12;;;3.10;85.13
43553;BME280;29153;42.696;23.218;2024-01-16T12:48:08;94157.66;;;3.11;84.83
43553;BME280;29153;42.696;23.218;2024-01-16T12:50:36;94150.94;;;3.01;83.98
43553;BME280;29153;42.696;23.218;2024-01-16T12:53:04;94152.94;;;3.11;84.34
43553;BME280;29153;42.696;23.218;2024-01-16T12:55:34;94144.83;;;3.12;86.15
43553;BME280;29153;42.696;23.218;2024-01-16T12:58:18;94150.47;;;3.21;84.69
43553;BME280;29153;42.696;23.218;2024-01-16T13:00:47;94163.30;;;3.20;84.04
43553;BME280;29153;42.696;23.218;2024-01-16T13:03:19;94163.22;;;3.32;82.98
43553;BME280;29153;42.696;23.218;2024-01-16T13:05:55;94160.61;;;3.32;81.45
43553;BME280;29153;42.696;23.218;2024-01-16T13:08:23;94164.61;;;3.20;82.45